Corpus Christi Naval Air Station/Truax Field
KNGP : now visible

Airfield :











YOU CAN JOIN US ON...

 
LOGIN :

Register | Disclaimer

   EN    FR    IT 

 









Legend :    VFR   Marginal VFR   IFR   Intensive IFR   Very Intensive IFR
Visi :
Ceiling :
>= 8 km
>= 3000ft
5 to 8 km
1000 to 3000 ft
1500m to 5 km
500 to 1000 ft
800 to 1500m
200 to 500 ft
< 800m
< 200 ft
Symbols :   Thunderstorms  Fog  Heavy snow  Heavy precipitations  Wind > 20 kt






- Airport Elevation : 18 ft


KNGP - Corpus Christi Naval Air Station/Truax Field

CURRENT METAR :
  • 241656Z 17013KT 10SM FEW008 BKN021 BKN300 23/19 A3005 RMK AO2 SLP174 T02330189

EXPIRED METARs :
  • 241610Z 17012KT 10SM FEW006 OVC022 22/19 A3005 RMK AO2 T02220189
  • 241556Z 18008KT 10SM OVC019 21/19 A3005 RMK AO2 SLP174 T02110189
  • 241456Z 18008KT 10SM OVC017 21/18 A3003 RMK AO2 SLP169 T02060178 53021

TAF TAF KNGP
Valid from the 24 at 15:00 until the 25 at 15:00 UTC


2415/2515 17013KT 9999 BKN018 BKN025 OVC300 QNH2992INS
TEMPO 2419/2421 16016G24KT SCT022 BKN035 BKN300
FM242100 16016G24KT 9999 SCT025 SCT040 BKN300 QNH2991INS
TEMPO 2421/2423 16018G26KT
FM242300 15013G19KT 8000 BR SCT008 SCT018 BKN300 QNH2994INS
FM250400 16009KT 8000 BR BKN006 OVC012 QNH3002INS
TEMPO 2507/2512 VRB06KT 3200 BR
FM251200 12008KT 8000 BR BKN012 OVC025 QNH3003INS T25/2420Z T17/2513Z FN20044
KZHU FIR / North America



MET'MAP, your aeronautical weather chart ! - Copyright ORBIFLY December 2007 - Disclaimer

ORBIFLY MET'MAP TEAM :

Programming & Development : Alexandra Zaïnal
Concept & original design : Baudouin d'Aumeries
Assistance for programming : Marc-Olivier Méhu
Technical & hardware support : Manuel Goepfert

Contact : metmap@orbifly.com




SOURCES & CREDITS :

   NOAA       Earth
Advisory